sensor_id;sensor_type;location;lat;lon;timestamp;P1;durP1;ratioP1;P2;durP2;ratioP2
75073;SDS011;63652;51.526;5.080;2024-02-23T00:00:51;6.28;;;1.63;;
75073;SDS011;63652;51.526;5.080;2024-02-23T00:03:16;2.85;;;1.50;;
75073;SDS011;63652;51.526;5.080;2024-02-23T00:05:44;3.78;;;1.60;;
75073;SDS011;63652;51.526;5.080;2024-02-23T00:08:10;3.67;;;0.82;;
75073;SDS011;63652;51.526;5.080;2024-02-23T00:10:35;3.58;;;1.98;;
75073;SDS011;63652;51.526;5.080;2024-02-23T00:13:01;3.42;;;1.17;;
75073;SDS011;63652;51.526;5.080;2024-02-23T00:15:37;3.85;;;1.55;;
75073;SDS011;63652;51.526;5.080;2024-02-23T00:18:02;1.85;;;1.00;;
75073;SDS011;63652;51.526;5.080;2024-02-23T00:20:29;2.97;;;1.25;;
75073;SDS011;63652;51.526;5.080;2024-02-23T00:22:55;5.50;;;1.10;;
75073;SDS011;63652;51.526;5.080;2024-02-23T00:25:20;2.95;;;1.38;;
75073;SDS011;63652;51.526;5.080;2024-02-23T00:27:46;6.70;;;1.33;;
75073;SDS011;63652;51.526;5.080;2024-02-23T00:30:12;2.38;;;0.82;;
75073;SDS011;63652;51.526;5.080;2024-02-23T00:32:38;2.08;;;1.13;;
75073;SDS011;63652;51.526;5.080;2024-02-23T00:35:04;2.20;;;1.00;;
75073;SDS011;63652;51.526;5.080;2024-02-23T00:37:30;2.80;;;0.80;;
75073;SDS011;63652;51.526;5.080;2024-02-23T00:40:00;2.50;;;1.20;;
75073;SDS011;63652;51.526;5.080;2024-02-23T00:42:29;3.45;;;1.17;;
75073;SDS011;63652;51.526;5.080;2024-02-23T00:44:55;3.78;;;0.70;;
75073;SDS011;63652;51.526;5.080;2024-02-23T00:47:20;1.20;;;0.60;;
75073;SDS011;63652;51.526;5.080;2024-02-23T00:49:46;5.70;;;0.68;;
75073;SDS011;63652;51.526;5.080;2024-02-23T00:52:11;4.80;;;0.70;;
75073;SDS011;63652;51.526;5.080;2024-02-23T00:54:37;2.00;;;0.47;;
75073;SDS011;63652;51.526;5.080;2024-02-23T00:57:02;2.00;;;0.70;;
75073;SDS011;63652;51.526;5.080;2024-02-23T00:59:28;3.95;;;0.82;;
75073;SDS011;63652;51.526;5.080;2024-02-23T01:01:54;1.55;;;0.77;;
75073;SDS011;63652;51.526;5.080;2024-02-23T01:04:22;1.83;;;0.60;;
75073;SDS011;63652;51.526;5.080;2024-02-23T01:06:47;6.30;;;0.65;;
75073;SDS011;63652;51.526;5.080;2024-02-23T01:09:13;1.17;;;0.47;;
75073;SDS011;63652;51.526;5.080;2024-02-23T01:11:38;1.00;;;0.25;;
75073;SDS011;63652;51.526;5.080;2024-02-23T01:14:04;3.10;;;0.73;;
75073;SDS011;63652;51.526;5.080;2024-02-23T01:16:31;1.27;;;0.77;;
75073;SDS011;63652;51.526;5.080;2024-02-23T01:18:57;7.10;;;0.93;;
75073;SDS011;63652;51.526;5.080;2024-02-23T01:21:23;2.75;;;0.45;;
75073;SDS011;63652;51.526;5.080;2024-02-23T01:23:48;2.35;;;0.38;;
75073;SDS011;63652;51.526;5.080;2024-02-23T01:26:14;2.95;;;0.60;;
75073;SDS011;63652;51.526;5.080;2024-02-23T01:28:39;3.72;;;0.60;;
75073;SDS011;63652;51.526;5.080;2024-02-23T01:31:07;1.20;;;0.40;;
75073;SDS011;63652;51.526;5.080;2024-02-23T01:33:35;3.00;;;0.57;;
75073;SDS011;63652;51.526;5.080;2024-02-23T01:36:01;3.03;;;0.60;;
75073;SDS011;63652;51.526;5.080;2024-02-23T01:38:27;1.73;;;0.47;;
75073;SDS011;63652;51.526;5.080;2024-02-23T01:40:56;1.83;;;0.38;;
75073;SDS011;63652;51.526;5.080;2024-02-23T01:43:24;3.13;;;0.40;;
75073;SDS011;63652;51.526;5.080;2024-02-23T01:45:53;2.72;;;0.50;;
75073;SDS011;63652;51.526;5.080;2024-02-23T01:48:19;2.63;;;0.70;;
75073;SDS011;63652;51.526;5.080;2024-02-23T01:50:45;2.28;;;0.40;;
75073;SDS011;63652;51.526;5.080;2024-02-23T01:53:11;1.75;;;0.50;;
75073;SDS011;63652;51.526;5.080;2024-02-23T01:55:43;12.52;;;1.02;;
75073;SDS011;63652;51.526;5.080;2024-02-23T01:58:10;2.20;;;0.77;;
75073;SDS011;63652;51.526;5.080;2024-02-23T02:00:36;3.05;;;0.73;;
75073;SDS011;63652;51.526;5.080;2024-02-23T02:03:02;2.42;;;0.45;;
75073;SDS011;63652;51.526;5.080;2024-02-23T02:05:27;3.63;;;0.85;;
75073;SDS011;63652;51.526;5.080;2024-02-23T02:07:53;1.10;;;0.52;;
75073;SDS011;63652;51.526;5.080;2024-02-23T02:10:24;2.03;;;0.38;;
75073;SDS011;63652;51.526;5.080;2024-02-23T02:12:49;4.03;;;0.88;;
75073;SDS011;63652;51.526;5.080;2024-02-23T02:15:15;10.65;;;1.02;;
75073;SDS011;63652;51.526;5.080;2024-02-23T02:17:41;5.32;;;0.73;;
75073;SDS011;63652;51.526;5.080;2024-02-23T02:20:06;1.83;;;0.63;;
75073;SDS011;63652;51.526;5.080;2024-02-23T02:22:36;2.45;;;0.60;;
75073;SDS011;63652;51.526;5.080;2024-02-23T02:25:02;2.38;;;0.32;;
75073;SDS011;63652;51.526;5.080;2024-02-23T02:27:28;4.45;;;0.80;;
75073;SDS011;63652;51.526;5.080;2024-02-23T02:29:53;7.53;;;0.63;;
75073;SDS011;63652;51.526;5.080;2024-02-23T02:32:19;1.95;;;0.70;;
75073;SDS011;63652;51.526;5.080;2024-02-23T02:34:45;3.05;;;0.80;;
75073;SDS011;63652;51.526;5.080;2024-02-23T02:37:10;3.33;;;0.50;;
75073;SDS011;63652;51.526;5.080;2024-02-23T02:39:36;4.53;;;0.70;;
75073;SDS011;63652;51.526;5.080;2024-02-23T02:42:01;1.10;;;0.60;;
75073;SDS011;63652;51.526;5.080;2024-02-23T02:44:27;5.60;;;0.80;;
75073;SDS011;63652;51.526;5.080;2024-02-23T02:46:55;4.30;;;0.98;;
75073;SDS011;63652;51.526;5.080;2024-02-23T02:49:21;2.40;;;0.65;;
75073;SDS011;63652;51.526;5.080;2024-02-23T02:51:47;7.63;;;1.10;;
75073;SDS011;63652;51.526;5.080;2024-02-23T02:54:12;3.20;;;0.85;;
75073;SDS011;63652;51.526;5.080;2024-02-23T02:56:42;2.80;;;1.13;;
75073;SDS011;63652;51.526;5.080;2024-02-23T02:59:08;2.55;;;0.45;;
75073;SDS011;63652;51.526;5.080;2024-02-23T03:01:33;4.28;;;0.60;;
75073;SDS011;63652;51.526;5.080;2024-02-23T03:03:59;6.25;;;0.82;;
75073;SDS011;63652;51.526;5.080;2024-02-23T03:06:24;2.53;;;0.55;;
75073;SDS011;63652;51.526;5.080;2024-02-23T03:08:49;2.72;;;0.50;;
75073;SDS011;63652;51.526;5.080;2024-02-23T03:11:17;1.85;;;0.35;;
75073;SDS011;63652;51.526;5.080;2024-02-23T03:13:42;1.38;;;0.57;;
75073;SDS011;63652;51.526;5.080;2024-02-23T03:16:17;3.65;;;0.60;;
75073;SDS011;63652;51.526;5.080;2024-02-23T03:18:48;2.83;;;0.52;;
75073;SDS011;63652;51.526;5.080;2024-02-23T03:21:14;1.13;;;0.32;;
75073;SDS011;63652;51.526;5.080;2024-02-23T03:23:40;1.90;;;0.63;;
75073;SDS011;63652;51.526;5.080;2024-02-23T03:26:07;0.90;;;0.30;;
75073;SDS011;63652;51.526;5.080;2024-02-23T03:28:32;2.05;;;0.30;;
75073;SDS011;63652;51.526;5.080;2024-02-23T03:30:59;1.17;;;0.25;;
75073;SDS011;63652;51.526;5.080;2024-02-23T03:33:25;1.85;;;0.50;;
75073;SDS011;63652;51.526;5.080;2024-02-23T03:35:53;1.65;;;0.20;;
75073;SDS011;63652;51.526;5.080;2024-02-23T03:38:22;0.63;;;0.35;;
75073;SDS011;63652;51.526;5.080;2024-02-23T03:40:49;1.40;;;0.50;;
75073;SDS011;63652;51.526;5.080;2024-02-23T03:43:15;1.77;;;0.30;;
75073;SDS011;63652;51.526;5.080;2024-02-23T03:45:40;5.25;;;0.80;;
75073;SDS011;63652;51.526;5.080;2024-02-23T03:48:06;1.40;;;0.50;;
75073;SDS011;63652;51.526;5.080;2024-02-23T03:50:31;3.30;;;0.80;;
75073;SDS011;63652;51.526;5.080;2024-02-23T03:52:57;2.75;;;0.73;;
75073;SDS011;63652;51.526;5.080;2024-02-23T03:55:25;3.50;;;0.75;;
75073;SDS011;63652;51.526;5.080;2024-02-23T03:57:50;2.83;;;0.60;;
75073;SDS011;63652;51.526;5.080;2024-02-23T04:00:19;4.32;;;0.85;;
75073;SDS011;63652;51.526;5.080;2024-02-23T04:02:45;2.78;;;0.88;;
75073;SDS011;63652;51.526;5.080;2024-02-23T04:05:11;3.75;;;0.70;;
75073;SDS011;63652;51.526;5.080;2024-02-23T04:07:36;6.68;;;1.50;;
75073;SDS011;63652;51.526;5.080;2024-02-23T04:10:02;4.53;;;1.00;;
75073;SDS011;63652;51.526;5.080;2024-02-23T04:12:29;7.30;;;0.95;;
75073;SDS011;63652;51.526;5.080;2024-02-23T04:14:57;2.22;;;0.50;;
75073;SDS011;63652;51.526;5.080;2024-02-23T04:17:23;5.63;;;1.08;;
75073;SDS011;63652;51.526;5.080;2024-02-23T04:19:48;6.28;;;0.68;;
75073;SDS011;63652;51.526;5.080;2024-02-23T04:22:14;3.60;;;0.70;;
75073;SDS011;63652;51.526;5.080;2024-02-23T04:24:40;7.28;;;0.90;;
75073;SDS011;63652;51.526;5.080;2024-02-23T04:27:06;5.78;;;1.10;;
75073;SDS011;63652;51.526;5.080;2024-02-23T04:29:32;3.42;;;0.73;;
75073;SDS011;63652;51.526;5.080;2024-02-23T04:31:59;12.30;;;1.13;;
75073;SDS011;63652;51.526;5.080;2024-02-23T04:34:25;2.67;;;0.60;;
75073;SDS011;63652;51.526;5.080;2024-02-23T04:36:50;3.15;;;0.52;;
75073;SDS011;63652;51.526;5.080;2024-02-23T04:39:16;4.80;;;0.73;;
75073;SDS011;63652;51.526;5.080;2024-02-23T04:41:44;4.72;;;0.88;;
75073;SDS011;63652;51.526;5.080;2024-02-23T04:44:11;3.17;;;0.82;;
75073;SDS011;63652;51.526;5.080;2024-02-23T04:46:37;1.98;;;0.50;;
75073;SDS011;63652;51.526;5.080;2024-02-23T04:49:02;5.32;;;0.82;;
75073;SDS011;63652;51.526;5.080;2024-02-23T04:51:28;1.85;;;0.55;;
75073;SDS011;63652;51.526;5.080;2024-02-23T04:53:54;3.67;;;0.93;;
75073;SDS011;63652;51.526;5.080;2024-02-23T04:56:19;1.98;;;0.40;;
75073;SDS011;63652;51.526;5.080;2024-02-23T04:58:45;3.80;;;0.70;;
75073;SDS011;63652;51.526;5.080;2024-02-23T05:01:14;1.95;;;0.50;;
75073;SDS011;63652;51.526;5.080;2024-02-23T05:03:42;3.28;;;0.50;;
75073;SDS011;63652;51.526;5.080;2024-02-23T05:06:08;5.60;;;0.55;;
75073;SDS011;63652;51.526;5.080;2024-02-23T05:08:33;2.38;;;0.52;;
75073;SDS011;63652;51.526;5.080;2024-02-23T05:10:59;4.55;;;0.60;;
75073;SDS011;63652;51.526;5.080;2024-02-23T05:13:24;1.83;;;0.63;;
75073;SDS011;63652;51.526;5.080;2024-02-23T05:15:50;3.15;;;0.70;;
75073;SDS011;63652;51.526;5.080;2024-02-23T05:18:22;1.55;;;0.40;;
75073;SDS011;63652;51.526;5.080;2024-02-23T05:20:47;3.95;;;0.63;;
75073;SDS011;63652;51.526;5.080;2024-02-23T05:23:13;2.25;;;0.47;;
75073;SDS011;63652;51.526;5.080;2024-02-23T05:25:44;1.15;;;0.40;;
75073;SDS011;63652;51.526;5.080;2024-02-23T05:28:10;1.45;;;0.75;;
75073;SDS011;63652;51.526;5.080;2024-02-23T05:30:36;3.55;;;0.80;;
75073;SDS011;63652;51.526;5.080;2024-02-23T05:33:01;2.30;;;0.45;;
75073;SDS011;63652;51.526;5.080;2024-02-23T05:35:28;2.67;;;0.65;;
75073;SDS011;63652;51.526;5.080;2024-02-23T05:37:54;2.92;;;0.50;;
75073;SDS011;63652;51.526;5.080;2024-02-23T05:40:29;6.82;;;1.05;;
75073;SDS011;63652;51.526;5.080;2024-02-23T05:42:54;5.70;;;0.93;;
75073;SDS011;63652;51.526;5.080;2024-02-23T05:45:23;6.68;;;1.08;;
75073;SDS011;63652;51.526;5.080;2024-02-23T05:47:49;1.50;;;0.70;;
75073;SDS011;63652;51.526;5.080;2024-02-23T05:50:14;8.05;;;1.15;;
75073;SDS011;63652;51.526;5.080;2024-02-23T05:52:40;7.03;;;1.50;;
75073;SDS011;63652;51.526;5.080;2024-02-23T05:55:06;3.20;;;0.82;;
75073;SDS011;63652;51.526;5.080;2024-02-23T05:57:31;2.92;;;1.20;;
75073;SDS011;63652;51.526;5.080;2024-02-23T05:59:57;3.35;;;1.10;;
75073;SDS011;63652;51.526;5.080;2024-02-23T06:02:22;7.65;;;1.30;;
75073;SDS011;63652;51.526;5.080;2024-02-23T06:04:50;4.47;;;1.35;;
75073;SDS011;63652;51.526;5.080;2024-02-23T06:07:26;2.30;;;1.00;;
75073;SDS011;63652;51.526;5.080;2024-02-23T06:09:57;3.13;;;1.42;;
75073;SDS011;63652;51.526;5.080;2024-02-23T06:12:22;2.75;;;1.00;;
75073;SDS011;63652;51.526;5.080;2024-02-23T06:14:50;3.08;;;0.77;;
75073;SDS011;63652;51.526;5.080;2024-02-23T06:17:21;3.85;;;0.65;;
75073;SDS011;63652;51.526;5.080;2024-02-23T06:19:54;6.45;;;1.55;;
75073;SDS011;63652;51.526;5.080;2024-02-23T06:22:30;1.30;;;0.57;;
75073;SDS011;63652;51.526;5.080;2024-02-23T06:24:56;2.05;;;0.85;;
75073;SDS011;63652;51.526;5.080;2024-02-23T06:27:24;4.28;;;1.00;;
75073;SDS011;63652;51.526;5.080;2024-02-23T06:29:52;5.88;;;0.90;;
75073;SDS011;63652;51.526;5.080;2024-02-23T06:32:18;5.80;;;0.80;;
75073;SDS011;63652;51.526;5.080;2024-02-23T06:34:43;2.30;;;0.68;;
75073;SDS011;63652;51.526;5.080;2024-02-23T06:37:09;4.32;;;1.77;;
75073;SDS011;63652;51.526;5.080;2024-02-23T06:39:34;4.25;;;0.70;;
75073;SDS011;63652;51.526;5.080;2024-02-23T06:42:00;5.43;;;1.10;;
75073;SDS011;63652;51.526;5.080;2024-02-23T06:44:29;2.50;;;0.57;;
75073;SDS011;63652;51.526;5.080;2024-02-23T06:46:54;4.22;;;0.80;;
75073;SDS011;63652;51.526;5.080;2024-02-23T06:49:20;5.90;;;0.88;;
75073;SDS011;63652;51.526;5.080;2024-02-23T06:51:51;3.05;;;0.77;;
75073;SDS011;63652;51.526;5.080;2024-02-23T06:54:23;2.00;;;0.60;;
75073;SDS011;63652;51.526;5.080;2024-02-23T06:56:48;4.65;;;0.90;;
75073;SDS011;63652;51.526;5.080;2024-02-23T06:59:13;6.75;;;1.20;;
75073;SDS011;63652;51.526;5.080;2024-02-23T07:01:49;5.85;;;0.60;;
75073;SDS011;63652;51.526;5.080;2024-02-23T07:04:15;3.05;;;1.13;;
75073;SDS011;63652;51.526;5.080;2024-02-23T07:06:40;4.55;;;0.60;;
75073;SDS011;63652;51.526;5.080;2024-02-23T07:09:06;3.67;;;0.73;;
75073;SDS011;63652;51.526;5.080;2024-02-23T07:11:31;8.00;;;0.68;;
75073;SDS011;63652;51.526;5.080;2024-02-23T07:13:56;9.40;;;1.10;;
75073;SDS011;63652;51.526;5.080;2024-02-23T07:16:22;6.68;;;0.77;;
75073;SDS011;63652;51.526;5.080;2024-02-23T07:18:47;3.35;;;0.90;;
75073;SDS011;63652;51.526;5.080;2024-02-23T07:21:13;5.03;;;0.82;;
75073;SDS011;63652;51.526;5.080;2024-02-23T07:23:38;3.13;;;0.57;;
75073;SDS011;63652;51.526;5.080;2024-02-23T07:26:04;4.20;;;1.00;;
75073;SDS011;63652;51.526;5.080;2024-02-23T07:28:29;1.35;;;0.40;;
75073;SDS011;63652;51.526;5.080;2024-02-23T07:30:58;6.50;;;0.73;;
75073;SDS011;63652;51.526;5.080;2024-02-23T07:33:26;1.75;;;0.77;;
75073;SDS011;63652;51.526;5.080;2024-02-23T07:35:51;7.53;;;0.90;;
75073;SDS011;63652;51.526;5.080;2024-02-23T07:38:17;1.90;;;0.80;;
75073;SDS011;63652;51.526;5.080;2024-02-23T07:40:45;2.53;;;0.70;;
75073;SDS011;63652;51.526;5.080;2024-02-23T07:43:10;5.05;;;0.80;;
75073;SDS011;63652;51.526;5.080;2024-02-23T07:45:36;2.22;;;0.60;;
75073;SDS011;63652;51.526;5.080;2024-02-23T07:48:03;3.28;;;0.60;;
75073;SDS011;63652;51.526;5.080;2024-02-23T07:50:29;2.85;;;0.40;;
75073;SDS011;63652;51.526;5.080;2024-02-23T07:52:54;2.95;;;0.60;;
75073;SDS011;63652;51.526;5.080;2024-02-23T07:55:20;5.75;;;0.90;;
75073;SDS011;63652;51.526;5.080;2024-02-23T07:57:45;6.35;;;0.80;;
75073;SDS011;63652;51.526;5.080;2024-02-23T08:00:11;3.38;;;0.80;;
75073;SDS011;63652;51.526;5.080;2024-02-23T08:02:38;4.15;;;0.65;;
75073;SDS011;63652;51.526;5.080;2024-02-23T08:05:03;6.68;;;0.77;;
75073;SDS011;63652;51.526;5.080;2024-02-23T08:07:29;5.65;;;0.65;;
75073;SDS011;63652;51.526;5.080;2024-02-23T08:09:57;5.63;;;0.77;;
75073;SDS011;63652;51.526;5.080;2024-02-23T08:12:22;6.47;;;0.95;;
75073;SDS011;63652;51.526;5.080;2024-02-23T08:15:08;8.45;;;1.33;;
75073;SDS011;63652;51.526;5.080;2024-02-23T08:17:34;1.35;;;0.50;;
75073;SDS011;63652;51.526;5.080;2024-02-23T08:19:59;4.05;;;1.17;;
75073;SDS011;63652;51.526;5.080;2024-02-23T08:22:30;3.10;;;0.77;;
75073;SDS011;63652;51.526;5.080;2024-02-23T08:24:56;3.55;;;1.02;;
75073;SDS011;63652;51.526;5.080;2024-02-23T08:27:22;4.25;;;0.75;;
75073;SDS011;63652;51.526;5.080;2024-02-23T08:29:47;1.90;;;0.70;;
75073;SDS011;63652;51.526;5.080;2024-02-23T08:32:13;4.22;;;0.98;;
75073;SDS011;63652;51.526;5.080;2024-02-23T08:34:39;7.20;;;0.63;;
75073;SDS011;63652;51.526;5.080;2024-02-23T08:37:04;5.07;;;1.08;;
75073;SDS011;63652;51.526;5.080;2024-02-23T08:39:38;3.22;;;0.98;;
75073;SDS011;63652;51.526;5.080;2024-02-23T08:42:04;2.40;;;0.88;;
75073;SDS011;63652;51.526;5.080;2024-02-23T08:44:29;3.78;;;0.70;;
75073;SDS011;63652;51.526;5.080;2024-02-23T08:46:57;4.43;;;0.68;;
75073;SDS011;63652;51.526;5.080;2024-02-23T08:49:35;4.15;;;0.50;;
75073;SDS011;63652;51.526;5.080;2024-02-23T08:52:35;5.07;;;0.52;;
75073;SDS011;63652;51.526;5.080;2024-02-23T08:55:03;4.35;;;0.70;;
75073;SDS011;63652;51.526;5.080;2024-02-23T08:57:29;8.05;;;1.33;;
75073;SDS011;63652;51.526;5.080;2024-02-23T09:00:19;3.28;;;0.90;;
75073;SDS011;63652;51.526;5.080;2024-02-23T11:14:38;2.60;;;0.60;;
75073;SDS011;63652;51.526;5.080;2024-02-23T11:17:05;5.15;;;1.35;;
75073;SDS011;63652;51.526;5.080;2024-02-23T11:19:37;5.97;;;1.02;;
75073;SDS011;63652;51.526;5.080;2024-02-23T11:22:08;2.90;;;0.70;;
75073;SDS011;63652;51.526;5.080;2024-02-23T11:24:41;2.35;;;0.50;;
75073;SDS011;63652;51.526;5.080;2024-02-23T11:27:12;3.72;;;0.60;;
75073;SDS011;63652;51.526;5.080;2024-02-23T11:29:39;2.75;;;0.70;;
75073;SDS011;63652;51.526;5.080;2024-02-23T11:32:12;6.28;;;0.70;;
75073;SDS011;63652;51.526;5.080;2024-02-23T11:35:07;2.30;;;0.30;;
75073;SDS011;63652;51.526;5.080;2024-02-23T13:36:57;7.20;;;0.63;;
75073;SDS011;63652;51.526;5.080;2024-02-23T13:39:25;0.60;;;0.30;;
75073;SDS011;63652;51.526;5.080;2024-02-23T13:41:53;2.38;;;0.63;;
75073;SDS011;63652;51.526;5.080;2024-02-23T13:44:24;2.33;;;0.43;;
75073;SDS011;63652;51.526;5.080;2024-02-23T13:46:54;5.53;;;0.50;;
75073;SDS011;63652;51.526;5.080;2024-02-23T13:49:30;4.75;;;0.68;;
75073;SDS011;63652;51.526;5.080;2024-02-23T13:51:59;2.80;;;1.02;;
75073;SDS011;63652;51.526;5.080;2024-02-23T13:54:26;4.65;;;0.77;;
75073;SDS011;63652;51.526;5.080;2024-02-23T13:56:55;2.47;;;0.60;;
75073;SDS011;63652;51.526;5.080;2024-02-23T13:59:28;2.33;;;0.38;;
75073;SDS011;63652;51.526;5.080;2024-02-23T14:01:56;3.95;;;0.95;;
75073;SDS011;63652;51.526;5.080;2024-02-23T14:04:23;3.60;;;0.82;;
75073;SDS011;63652;51.526;5.080;2024-02-23T14:06:54;11.15;;;2.20;;
75073;SDS011;63652;51.526;5.080;2024-02-23T14:09:25;1.98;;;0.63;;
75073;SDS011;63652;51.526;5.080;2024-02-23T14:12:00;3.55;;;1.05;;
75073;SDS011;63652;51.526;5.080;2024-02-23T14:14:25;5.53;;;0.98;;
75073;SDS011;63652;51.526;5.080;2024-02-23T14:16:52;4.13;;;0.73;;
75073;SDS011;63652;51.526;5.080;2024-02-23T14:19:19;3.63;;;0.80;;
75073;SDS011;63652;51.526;5.080;2024-02-23T14:21:48;2.28;;;0.65;;
75073;SDS011;63652;51.526;5.080;2024-02-23T14:24:14;4.07;;;1.00;;
75073;SDS011;63652;51.526;5.080;2024-02-23T14:26:49;2.28;;;0.70;;
75073;SDS011;63652;51.526;5.080;2024-02-23T14:29:22;4.30;;;0.98;;
75073;SDS011;63652;51.526;5.080;2024-02-23T14:32:00;6.15;;;1.38;;
75073;SDS011;63652;51.526;5.080;2024-02-23T14:34:26;1.92;;;0.57;;
75073;SDS011;63652;51.526;5.080;2024-02-23T14:36:55;3.22;;;0.52;;
75073;SDS011;63652;51.526;5.080;2024-02-23T14:39:24;5.10;;;0.93;;
75073;SDS011;63652;51.526;5.080;2024-02-23T14:41:53;3.58;;;0.77;;
75073;SDS011;63652;51.526;5.080;2024-02-23T14:44:19;1.13;;;0.43;;
75073;SDS011;63652;51.526;5.080;2024-02-23T14:46:47;2.92;;;0.73;;
75073;SDS011;63652;51.526;5.080;2024-02-23T14:49:49;9.05;;;2.47;;
75073;SDS011;63652;51.526;5.080;2024-02-23T14:52:27;7.70;;;0.90;;
75073;SDS011;63652;51.526;5.080;2024-02-23T14:54:54;5.72;;;0.90;;
75073;SDS011;63652;51.526;5.080;2024-02-23T14:57:32;5.07;;;1.55;;
75073;SDS011;63652;51.526;5.080;2024-02-23T15:00:08;3.35;;;1.20;;
75073;SDS011;63652;51.526;5.080;2024-02-23T15:02:37;3.45;;;0.80;;
75073;SDS011;63652;51.526;5.080;2024-02-23T15:05:03;5.07;;;0.95;;
75073;SDS011;63652;51.526;5.080;2024-02-23T15:07:32;5.75;;;1.27;;
75073;SDS011;63652;51.526;5.080;2024-02-23T15:10:02;5.63;;;0.85;;
75073;SDS011;63652;51.526;5.080;2024-02-23T15:12:33;18.17;;;1.40;;
75073;SDS011;63652;51.526;5.080;2024-02-23T15:15:02;6.10;;;0.80;;
75073;SDS011;63652;51.526;5.080;2024-02-23T15:17:33;3.30;;;0.73;;
75073;SDS011;63652;51.526;5.080;2024-02-23T15:19:59;4.80;;;0.93;;
75073;SDS011;63652;51.526;5.080;2024-02-23T15:22:25;3.67;;;0.80;;
75073;SDS011;63652;51.526;5.080;2024-02-23T15:24:53;3.00;;;1.02;;
75073;SDS011;63652;51.526;5.080;2024-02-23T15:27:19;2.72;;;0.80;;
75073;SDS011;63652;51.526;5.080;2024-02-23T15:29:54;1.83;;;0.80;;
75073;SDS011;63652;51.526;5.080;2024-02-23T15:32:24;2.17;;;0.80;;
75073;SDS011;63652;51.526;5.080;2024-02-23T15:34:56;5.45;;;0.73;;
75073;SDS011;63652;51.526;5.080;2024-02-23T15:37:28;3.17;;;0.60;;
75073;SDS011;63652;51.526;5.080;2024-02-23T15:40:01;2.60;;;0.60;;
75073;SDS011;63652;51.526;5.080;2024-02-23T15:42:32;3.83;;;0.75;;
75073;SDS011;63652;51.526;5.080;2024-02-23T15:45:03;2.30;;;0.88;;
75073;SDS011;63652;51.526;5.080;2024-02-23T15:47:31;1.95;;;0.73;;
75073;SDS011;63652;51.526;5.080;2024-02-23T15:52:54;2.30;;;0.70;;
75073;SDS011;63652;51.526;5.080;2024-02-23T15:55:25;4.50;;;0.80;;
75073;SDS011;63652;51.526;5.080;2024-02-23T15:57:53;0.98;;;0.40;;
75073;SDS011;63652;51.526;5.080;2024-02-23T16:00:22;2.00;;;0.55;;
75073;SDS011;63652;51.526;5.080;2024-02-23T16:02:57;5.40;;;0.60;;
75073;SDS011;63652;51.526;5.080;2024-02-23T16:05:22;2.13;;;0.60;;
75073;SDS011;63652;51.526;5.080;2024-02-23T16:07:57;3.85;;;0.80;;
75073;SDS011;63652;51.526;5.080;2024-02-23T16:10:29;3.63;;;0.60;;
75073;SDS011;63652;51.526;5.080;2024-02-23T16:12:57;4.90;;;0.80;;
75073;SDS011;63652;51.526;5.080;2024-02-23T16:15:24;2.35;;;0.57;;
75073;SDS011;63652;51.526;5.080;2024-02-23T16:17:50;5.35;;;1.55;;
75073;SDS011;63652;51.526;5.080;2024-02-23T16:20:26;5.85;;;1.25;;
75073;SDS011;63652;51.526;5.080;2024-02-23T16:22:59;5.20;;;0.52;;
75073;SDS011;63652;51.526;5.080;2024-02-23T16:25:25;3.25;;;0.40;;
75073;SDS011;63652;51.526;5.080;2024-02-23T16:27:53;2.80;;;0.47;;
75073;SDS011;63652;51.526;5.080;2024-02-23T16:30:39;3.13;;;0.60;;
75073;SDS011;63652;51.526;5.080;2024-02-23T16:33:05;1.67;;;0.40;;
75073;SDS011;63652;51.526;5.080;2024-02-23T16:35:35;2.25;;;0.43;;
75073;SDS011;63652;51.526;5.080;2024-02-23T16:38:01;2.50;;;0.63;;
75073;SDS011;63652;51.526;5.080;2024-02-23T16:40:26;2.35;;;0.47;;
75073;SDS011;63652;51.526;5.080;2024-02-23T16:42:58;4.55;;;0.77;;
75073;SDS011;63652;51.526;5.080;2024-02-23T16:45:27;7.38;;;1.40;;
75073;SDS011;63652;51.526;5.080;2024-02-23T16:47:53;3.75;;;0.85;;
75073;SDS011;63652;51.526;5.080;2024-02-23T16:50:29;1.95;;;0.70;;
75073;SDS011;63652;51.526;5.080;2024-02-23T16:52:54;4.35;;;0.75;;
75073;SDS011;63652;51.526;5.080;2024-02-23T16:55:23;1.45;;;0.43;;
75073;SDS011;63652;51.526;5.080;2024-02-23T16:57:49;1.85;;;0.60;;
75073;SDS011;63652;51.526;5.080;2024-02-23T17:00:18;4.70;;;1.02;;
75073;SDS011;63652;51.526;5.080;2024-02-23T17:02:43;3.20;;;0.50;;
75073;SDS011;63652;51.526;5.080;2024-02-23T17:05:09;3.30;;;0.50;;
75073;SDS011;63652;51.526;5.080;2024-02-23T17:07:34;4.53;;;0.80;;
75073;SDS011;63652;51.526;5.080;2024-02-23T17:10:00;4.72;;;0.70;;
75073;SDS011;63652;51.526;5.080;2024-02-23T17:12:35;6.07;;;1.52;;
75073;SDS011;63652;51.526;5.080;2024-02-23T17:15:00;1.92;;;0.82;;
75073;SDS011;63652;51.526;5.080;2024-02-23T17:17:29;2.85;;;1.20;;
75073;SDS011;63652;51.526;5.080;2024-02-23T17:19:54;2.90;;;0.90;;
75073;SDS011;63652;51.526;5.080;2024-02-23T17:22:28;5.25;;;1.08;;
75073;SDS011;63652;51.526;5.080;2024-02-23T17:24:54;2.50;;;0.77;;
75073;SDS011;63652;51.526;5.080;2024-02-23T17:27:19;3.05;;;1.13;;
75073;SDS011;63652;51.526;5.080;2024-02-23T17:29:54;4.70;;;2.17;;
75073;SDS011;63652;51.526;5.080;2024-02-23T17:32:22;3.10;;;1.38;;
75073;SDS011;63652;51.526;5.080;2024-02-23T17:34:48;1.48;;;0.75;;
75073;SDS011;63652;51.526;5.080;2024-02-23T17:37:13;4.70;;;1.60;;
75073;SDS011;63652;51.526;5.080;2024-02-23T17:39:39;1.20;;;0.50;;
75073;SDS011;63652;51.526;5.080;2024-02-23T17:42:04;2.17;;;0.60;;
75073;SDS011;63652;51.526;5.080;2024-02-23T17:44:30;2.15;;;0.28;;
75073;SDS011;63652;51.526;5.080;2024-02-23T17:46:55;1.15;;;0.45;;
75073;SDS011;63652;51.526;5.080;2024-02-23T17:49:39;1.85;;;0.45;;
75073;SDS011;63652;51.526;5.080;2024-02-23T17:52:05;2.97;;;1.08;;
75073;SDS011;63652;51.526;5.080;2024-02-23T17:54:30;1.95;;;0.68;;
75073;SDS011;63652;51.526;5.080;2024-02-23T17:57:08;4.55;;;0.80;;
75073;SDS011;63652;51.526;5.080;2024-02-23T17:59:34;5.93;;;1.65;;
75073;SDS011;63652;51.526;5.080;2024-02-23T18:01:59;8.57;;;4.90;;
75073;SDS011;63652;51.526;5.080;2024-02-23T18:04:26;13.38;;;6.60;;
75073;SDS011;63652;51.526;5.080;2024-02-23T18:06:54;26.73;;;11.35;;
75073;SDS011;63652;51.526;5.080;2024-02-23T18:09:29;28.55;;;12.52;;
75073;SDS011;63652;51.526;5.080;2024-02-23T18:11:55;23.70;;;12.80;;
75073;SDS011;63652;51.526;5.080;2024-02-23T18:14:27;18.27;;;8.95;;
75073;SDS011;63652;51.526;5.080;2024-02-23T18:16:54;16.75;;;6.57;;
75073;SDS011;63652;51.526;5.080;2024-02-23T18:19:23;17.92;;;9.57;;
75073;SDS011;63652;51.526;5.080;2024-02-23T18:21:48;7.45;;;3.80;;
75073;SDS011;63652;51.526;5.080;2024-02-23T18:24:33;3.42;;;1.40;;
75073;SDS011;63652;51.526;5.080;2024-02-23T18:27:24;2.63;;;1.20;;
75073;SDS011;63652;51.526;5.080;2024-02-23T18:29:54;4.78;;;0.80;;
75073;SDS011;63652;51.526;5.080;2024-02-23T18:32:33;3.97;;;1.08;;
75073;SDS011;63652;51.526;5.080;2024-02-23T18:34:59;2.28;;;1.30;;
75073;SDS011;63652;51.526;5.080;2024-02-23T18:37:24;2.45;;;1.00;;
75073;SDS011;63652;51.526;5.080;2024-02-23T18:39:54;2.08;;;1.05;;
75073;SDS011;63652;51.526;5.080;2024-02-23T18:42:21;3.95;;;1.10;;
75073;SDS011;63652;51.526;5.080;2024-02-23T18:44:59;1.95;;;0.95;;
75073;SDS011;63652;51.526;5.080;2024-02-23T18:47:25;6.68;;;1.00;;
75073;SDS011;63652;51.526;5.080;2024-02-23T18:49:56;2.88;;;1.00;;
75073;SDS011;63652;51.526;5.080;2024-02-23T18:52:22;2.03;;;0.70;;
75073;SDS011;63652;51.526;5.080;2024-02-23T18:54:50;3.60;;;1.25;;
75073;SDS011;63652;51.526;5.080;2024-02-23T18:57:22;5.32;;;1.10;;
75073;SDS011;63652;51.526;5.080;2024-02-23T18:59:59;1.95;;;1.10;;
75073;SDS011;63652;51.526;5.080;2024-02-23T19:02:26;7.53;;;1.05;;
75073;SDS011;63652;51.526;5.080;2024-02-23T19:04:55;4.25;;;1.27;;
75073;SDS011;63652;51.526;5.080;2024-02-23T19:07:20;9.13;;;2.58;;